createdAt,value
2023-03-06T00:01:47.473Z,29.30
2023-03-06T00:02:48.367Z,29.90
2023-03-06T00:03:48.336Z,30.40
2023-03-06T00:04:48.467Z,30.00
2023-03-06T00:05:48.227Z,29.90
2023-03-06T00:06:48.187Z,31.10
2023-03-06T00:07:48.048Z,31.80
2023-03-06T00:08:48.011Z,31.30
2023-03-06T00:09:47.958Z,32.60
2023-03-06T00:10:47.946Z,32.60
2023-03-06T00:11:47.815Z,32.30
2023-03-06T00:12:47.819Z,32.10
2023-03-06T00:13:47.692Z,32.90
2023-03-06T00:14:47.610Z,34.30
2023-03-06T00:15:47.568Z,34.10
2023-03-06T00:16:47.534Z,32.70
2023-03-06T00:17:47.449Z,33.10
2023-03-06T00:18:47.405Z,35.50
2023-03-06T00:19:47.345Z,35.30
2023-03-06T00:20:47.268Z,35.20
2023-03-06T00:21:47.201Z,35.70
2023-03-06T00:22:47.130Z,36.20
2023-03-06T00:23:47.049Z,36.50
2023-03-06T00:24:47.031Z,35.20
2023-03-06T00:25:46.939Z,37.30
2023-03-06T00:26:46.900Z,37.20
2023-03-06T00:27:46.790Z,37.40
2023-03-06T00:28:46.776Z,37.30
2023-03-06T00:29:46.687Z,38.70
2023-03-06T00:30:46.648Z,37.70
2023-03-06T00:31:46.610Z,38.00
2023-03-06T00:32:46.496Z,38.70
2023-03-06T00:33:46.460Z,39.90
2023-03-06T00:34:46.396Z,40.20
2023-03-06T00:35:46.333Z,39.80
2023-03-06T00:36:46.264Z,42.00
2023-03-06T00:37:46.259Z,38.30
2023-03-06T00:38:46.121Z,40.00
2023-03-06T00:39:46.053Z,39.60
2023-03-06T00:40:45.985Z,41.40
2023-03-06T00:41:47.047Z,40.20
2023-03-06T00:42:45.879Z,41.00
2023-03-06T00:43:45.805Z,40.00
2023-03-06T00:44:45.733Z,40.60
2023-03-06T00:45:45.687Z,40.70
2023-03-06T00:46:45.636Z,42.10
2023-03-06T00:47:45.550Z,41.00
2023-03-06T00:48:45.497Z,40.90
2023-03-06T00:49:45.417Z,40.90
2023-03-06T00:50:45.332Z,40.50
2023-03-06T00:51:45.318Z,42.00
2023-03-06T00:52:45.231Z,40.50
2023-03-06T00:53:45.198Z,41.30
2023-03-06T00:55:54.297Z,41.30
2023-03-06T00:56:55.261Z,40.60
2023-03-06T00:57:55.190Z,41.70
2023-03-06T00:58:55.134Z,40.50
2023-03-06T00:59:55.099Z,41.70
2023-03-06T01:00:55.041Z,40.80
2023-03-06T01:01:55.028Z,40.20
2023-03-06T01:02:54.878Z,41.60
2023-03-06T01:03:54.838Z,40.90
2023-03-06T01:04:54.748Z,39.70
2023-03-06T01:05:54.677Z,38.40
2023-03-06T01:06:54.644Z,38.70
2023-03-06T01:07:54.582Z,39.20
2023-03-06T01:08:54.493Z,39.40
2023-03-06T01:09:54.452Z,38.50
2023-03-06T01:10:54.332Z,39.60
2023-03-06T01:11:54.316Z,39.60
2023-03-06T01:12:54.229Z,39.00
2023-03-06T01:13:54.144Z,36.80
2023-03-06T01:14:54.140Z,39.70
2023-03-06T01:15:54.085Z,39.60
2023-03-06T01:16:53.957Z,38.70
2023-03-06T01:17:53.933Z,39.30
2023-03-06T01:18:53.871Z,37.90
2023-03-06T01:19:53.823Z,39.50
2023-03-06T01:20:53.722Z,38.50
2023-03-06T01:21:53.661Z,37.80
2023-03-06T01:22:53.599Z,38.00
2023-03-06T01:23:53.532Z,37.90
2023-03-06T01:24:53.514Z,37.20
2023-03-06T01:25:53.433Z,37.60
2023-03-06T01:26:53.368Z,39.40
2023-03-06T01:27:53.252Z,38.90
2023-03-06T01:28:53.214Z,38.60
2023-03-06T01:29:53.147Z,39.50
2023-03-06T01:32:02.521Z,38.70
2023-03-06T01:33:03.262Z,39.70
2023-03-06T01:34:03.200Z,39.40
2023-03-06T01:35:03.114Z,40.40
2023-03-06T01:36:03.021Z,42.40
2023-03-06T01:37:03.029Z,40.90
2023-03-06T01:38:02.922Z,41.90
2023-03-06T01:39:02.870Z,42.00
2023-03-06T01:40:02.799Z,42.00
2023-03-06T01:41:02.712Z,42.80
2023-03-06T01:42:02.645Z,42.50
2023-03-06T01:43:02.673Z,42.80
2023-03-06T01:44:02.574Z,43.60
2023-03-06T01:45:02.480Z,42.90
2023-03-06T01:46:02.516Z,43.80
2023-03-06T01:47:02.411Z,43.70
2023-03-06T01:48:02.316Z,45.50
2023-03-06T01:49:23.240Z,45.60
2023-03-06T01:50:02.165Z,46.30
2023-03-06T01:51:02.101Z,46.00
2023-03-06T01:52:02.044Z,45.40
2023-03-06T01:53:01.977Z,45.60
2023-03-06T01:54:01.936Z,46.40
2023-03-06T01:55:02.119Z,46.10
2023-03-06T01:56:01.783Z,46.30
2023-03-06T01:57:01.748Z,47.40
2023-03-06T01:58:01.656Z,48.60
2023-03-06T01:59:01.589Z,48.40
2023-03-06T02:00:01.524Z,49.40
2023-03-06T02:01:01.498Z,46.20
2023-03-06T02:02:01.455Z,47.80
2023-03-06T02:03:01.338Z,48.40
2023-03-06T02:04:01.269Z,47.20
2023-03-06T02:05:01.213Z,48.20
2023-03-06T02:06:01.143Z,46.90
2023-03-06T02:08:40.085Z,49.00
2023-03-06T02:09:41.059Z,49.80
2023-03-06T02:10:41.042Z,48.70
2023-03-06T02:11:40.937Z,48.50
2023-03-06T02:12:40.857Z,47.50
2023-03-06T02:13:40.817Z,48.50
2023-03-06T02:14:40.711Z,48.40
2023-03-06T02:15:40.646Z,50.60
2023-03-06T02:16:40.652Z,48.50
2023-03-06T02:17:40.544Z,48.70
2023-03-06T02:18:40.453Z,49.10
2023-03-06T02:19:40.402Z,48.20
2023-03-06T02:20:40.351Z,49.30
2023-03-06T02:21:40.296Z,47.10
2023-03-06T02:22:40.227Z,50.00
2023-03-06T02:23:40.188Z,48.60
2023-03-06T02:24:40.094Z,49.60
2023-03-06T02:25:40.094Z,48.40
2023-03-06T02:26:40.007Z,49.20
2023-03-06T02:27:39.932Z,49.70
2023-03-06T02:28:39.855Z,47.90
2023-03-06T02:29:39.807Z,50.70
2023-03-06T02:30:39.752Z,48.50
2023-03-06T02:31:39.659Z,48.70
2023-03-06T02:32:39.629Z,49.80
2023-03-06T02:33:39.538Z,50.50
2023-03-06T02:34:39.500Z,49.80
2023-03-06T02:35:39.425Z,51.60
2023-03-06T02:36:39.311Z,51.30
2023-03-06T02:37:39.268Z,50.20
2023-03-06T02:38:39.203Z,50.30
2023-03-06T02:39:39.174Z,50.70
2023-03-06T02:40:39.104Z,53.70
2023-03-06T02:41:39.046Z,53.70
2023-03-06T02:42:38.961Z,52.70
2023-03-06T02:43:59.846Z,55.10
2023-03-06T02:44:38.829Z,53.30
2023-03-06T02:45:38.765Z,55.20
2023-03-06T02:46:38.669Z,53.80
2023-03-06T02:47:38.659Z,54.00
2023-03-06T02:48:38.544Z,53.90
2023-03-06T02:49:38.513Z,55.40
2023-03-06T02:50:38.449Z,57.50
2023-03-06T02:51:38.352Z,55.60
2023-03-06T02:52:38.338Z,55.80
2023-03-06T02:53:38.253Z,56.20
2023-03-06T02:54:38.189Z,56.90
2023-03-06T02:55:59.113Z,55.50
2023-03-06T02:56:38.076Z,56.90
2023-03-06T02:57:37.977Z,58.70
2023-03-06T02:58:37.970Z,58.60
2023-03-06T02:59:37.892Z,57.60
2023-03-06T03:00:38.444Z,57.20
2023-03-06T03:01:37.762Z,57.40
2023-03-06T03:02:37.675Z,59.80
2023-03-06T03:03:37.582Z,59.00
2023-03-06T03:04:37.621Z,59.60
2023-03-06T03:05:37.481Z,58.30
2023-03-06T03:06:37.397Z,56.80
2023-03-06T03:07:37.418Z,58.20
2023-03-06T03:08:37.295Z,58.00
2023-03-06T03:09:37.241Z,59.40
2023-03-06T03:10:58.122Z,57.10
2023-03-06T03:11:37.106Z,58.50
2023-03-06T03:12:37.014Z,58.60
2023-03-06T03:13:36.986Z,59.60
2023-03-06T03:14:36.953Z,57.90
2023-03-06T03:15:36.895Z,59.40
2023-03-06T03:16:39.073Z,59.40
2023-03-06T03:17:36.723Z,58.70
2023-03-06T03:18:36.657Z,58.90
2023-03-06T03:19:57.594Z,61.30
2023-03-06T03:20:36.556Z,59.30
2023-03-06T03:21:36.441Z,58.40
2023-03-06T03:22:36.401Z,60.60
2023-03-06T03:23:36.367Z,60.80
2023-03-06T03:24:36.319Z,61.20
2023-03-06T03:25:36.227Z,59.40
2023-03-06T03:26:36.177Z,60.90
2023-03-06T03:27:36.101Z,60.90
2023-03-06T03:28:36.050Z,59.90
2023-03-06T03:29:35.933Z,59.90
2023-03-06T03:30:35.907Z,60.30
2023-03-06T03:31:35.860Z,59.80
2023-03-06T03:32:35.802Z,60.30
2023-03-06T03:33:35.678Z,60.40
2023-03-06T03:34:35.669Z,61.90
2023-03-06T03:35:35.564Z,60.60
2023-03-06T03:36:35.497Z,63.00
2023-03-06T03:37:35.439Z,61.00
2023-03-06T03:38:35.396Z,59.10
2023-03-06T03:39:35.351Z,59.80
2023-03-06T03:40:35.262Z,59.30
2023-03-06T03:41:35.178Z,60.70
2023-03-06T03:42:35.132Z,59.90
2023-03-06T03:43:35.092Z,62.70
2023-03-06T03:44:35.004Z,60.80
2023-03-06T03:45:34.969Z,59.00
2023-03-06T03:46:34.968Z,59.90
2023-03-06T03:47:34.846Z,60.60
2023-03-06T03:48:34.762Z,60.50
2023-03-06T03:49:34.736Z,61.00
2023-03-06T03:50:34.654Z,62.00
2023-03-06T03:51:34.560Z,61.50
2023-03-06T03:52:34.471Z,62.70
2023-03-06T03:53:34.439Z,62.70
2023-03-06T03:54:34.408Z,61.90
2023-03-06T03:55:55.293Z,61.90
2023-03-06T03:56:34.237Z,61.80
2023-03-06T03:57:34.178Z,62.70
2023-03-06T03:58:34.111Z,61.80
2023-03-06T03:59:34.028Z,63.00
2023-03-06T04:00:33.962Z,64.40
2023-03-06T04:01:34.289Z,62.40
2023-03-06T04:02:33.858Z,62.00
2023-03-06T04:03:33.797Z,62.40
2023-03-06T04:04:33.798Z,64.10
2023-03-06T04:05:33.649Z,65.20
2023-03-06T04:06:33.647Z,63.40
2023-03-06T04:07:33.523Z,64.90
2023-03-06T04:08:33.485Z,64.50
2023-03-06T04:09:33.382Z,65.60
2023-03-06T04:10:33.347Z,64.60
2023-03-06T04:11:33.321Z,64.90
2023-03-06T04:12:33.194Z,66.20
2023-03-06T04:13:33.167Z,65.50
2023-03-06T04:14:33.092Z,65.80
2023-03-06T04:15:33.062Z,66.90
2023-03-06T04:16:32.993Z,64.70
2023-03-06T04:17:32.909Z,64.50
2023-03-06T04:18:32.837Z,65.40
2023-03-06T04:19:32.768Z,66.00
2023-03-06T04:20:32.707Z,64.20
2023-03-06T04:21:32.643Z,66.00
2023-03-06T04:22:32.609Z,66.00
2023-03-06T04:23:32.521Z,67.10
2023-03-06T04:24:32.457Z,66.10
2023-03-06T04:25:32.437Z,66.70
2023-03-06T04:26:32.330Z,66.40
2023-03-06T04:27:32.297Z,65.50
2023-03-06T04:28:32.224Z,66.80
2023-03-06T04:29:32.189Z,66.00
2023-03-06T04:30:32.100Z,67.10
2023-03-06T04:34:10.576Z,62.40
2023-03-06T04:35:11.480Z,64.10
2023-03-06T04:36:11.406Z,67.40
2023-03-06T04:37:11.398Z,67.70
2023-03-06T04:38:11.305Z,69.40
2023-03-06T04:39:11.267Z,67.30
2023-03-06T04:40:11.228Z,68.00
2023-03-06T04:41:11.104Z,67.80
2023-03-06T04:42:11.021Z,68.20
2023-03-06T04:43:10.986Z,65.20
2023-03-06T04:44:10.887Z,67.10
2023-03-06T04:45:10.881Z,67.30
2023-03-06T04:46:10.772Z,67.50
2023-03-06T04:47:10.704Z,67.60
2023-03-06T04:48:10.666Z,67.00
2023-03-06T04:50:49.602Z,65.70
2023-03-06T04:51:50.537Z,68.70
2023-03-06T04:52:50.505Z,66.60
2023-03-06T04:53:50.385Z,69.00
2023-03-06T04:54:50.329Z,71.20
2023-03-06T04:55:50.263Z,68.60
2023-03-06T04:56:50.194Z,69.90
2023-03-06T04:57:50.133Z,70.00
2023-03-06T04:58:50.075Z,69.70
2023-03-06T04:59:50.037Z,70.90
2023-03-06T05:00:49.984Z,70.10
2023-03-06T05:01:49.960Z,69.90
2023-03-06T05:02:49.817Z,69.40
2023-03-06T05:03:49.763Z,69.60
2023-03-06T05:04:49.722Z,70.30
2023-03-06T05:05:49.636Z,69.60
2023-03-06T05:06:49.608Z,70.30
2023-03-06T05:07:49.551Z,70.10
2023-03-06T05:08:49.465Z,69.60
2023-03-06T05:09:49.430Z,70.80
2023-03-06T05:10:49.321Z,68.80
2023-03-06T05:11:49.251Z,70.50
2023-03-06T05:12:49.227Z,68.70
2023-03-06T05:13:49.142Z,71.10
2023-03-06T05:14:49.108Z,71.40
2023-03-06T05:15:48.994Z,70.30
2023-03-06T05:16:49.151Z,70.60
2023-03-06T05:17:48.937Z,70.60
2023-03-06T05:18:50.579Z,71.10
2023-03-06T05:19:48.779Z,70.50
2023-03-06T05:20:48.728Z,70.30
2023-03-06T05:21:48.612Z,71.60
2023-03-06T05:22:48.586Z,70.40
2023-03-06T05:23:48.489Z,70.00
2023-03-06T05:25:09.403Z,70.40
2023-03-06T05:25:48.400Z,69.50
2023-03-06T05:26:48.316Z,69.80
2023-03-06T05:27:48.261Z,70.10
2023-03-06T05:28:48.224Z,70.60
2023-03-06T05:29:48.173Z,69.90
2023-03-06T05:30:48.068Z,69.50
2023-03-06T05:31:48.065Z,69.40
2023-03-06T05:32:48.005Z,68.70
2023-03-06T05:33:47.865Z,70.00
2023-03-06T05:34:47.806Z,71.10
2023-03-06T05:35:47.866Z,72.10
2023-03-06T05:36:47.751Z,71.40
2023-03-06T05:37:47.606Z,71.20
2023-03-06T05:38:47.569Z,72.30
2023-03-06T05:39:47.440Z,73.90
2023-03-06T05:40:47.418Z,71.60
2023-03-06T05:41:47.327Z,70.40
2023-03-06T05:44:26.240Z,69.10
2023-03-06T05:45:27.148Z,71.90
2023-03-06T05:46:27.086Z,72.10
2023-03-06T05:47:27.010Z,72.80
2023-03-06T05:48:26.994Z,72.30
2023-03-06T05:49:26.914Z,71.80
2023-03-06T05:50:26.849Z,72.40
2023-03-06T05:51:26.811Z,70.50
2023-03-06T05:52:26.745Z,70.80
2023-03-06T05:53:26.645Z,72.60
2023-03-06T05:54:26.622Z,71.00
2023-03-06T05:55:26.528Z,71.90
2023-03-06T05:56:26.438Z,72.20
2023-03-06T05:57:26.381Z,72.30
2023-03-06T05:58:26.341Z,73.70
2023-03-06T05:59:26.274Z,73.00
2023-03-06T06:00:26.244Z,70.30
2023-03-06T06:01:26.147Z,72.30
2023-03-06T06:02:26.130Z,72.60
2023-03-06T06:03:26.113Z,69.50
2023-03-06T06:04:25.963Z,71.30
2023-03-06T06:05:25.877Z,70.60
2023-03-06T06:06:25.875Z,72.40
2023-03-06T06:07:25.796Z,72.60
2023-03-06T06:08:25.735Z,71.90
2023-03-06T06:09:25.640Z,73.40
2023-03-06T06:10:25.578Z,72.10
2023-03-06T06:11:25.506Z,71.00
2023-03-06T06:12:25.476Z,73.00
2023-03-06T06:13:25.419Z,71.40
2023-03-06T06:14:25.321Z,74.40
2023-03-06T06:15:25.283Z,71.80
2023-03-06T06:16:25.220Z,73.50
2023-03-06T06:17:25.149Z,71.70
2023-03-06T06:18:25.050Z,72.10
2023-03-06T06:19:25.000Z,72.30
2023-03-06T06:20:24.961Z,73.50
2023-03-06T06:21:24.872Z,72.60
2023-03-06T06:22:24.793Z,74.10
2023-03-06T06:23:24.732Z,73.90
2023-03-06T06:24:24.698Z,72.90
2023-03-06T06:25:24.622Z,72.30
2023-03-06T06:26:24.529Z,73.70
2023-03-06T06:27:24.519Z,74.30
2023-03-06T06:28:24.405Z,74.30
2023-03-06T06:29:24.401Z,73.60
2023-03-06T06:30:24.326Z,76.60
2023-03-06T06:31:24.333Z,74.30
2023-03-06T06:32:24.193Z,73.50
2023-03-06T06:33:24.154Z,75.00
2023-03-06T06:34:24.064Z,73.40
2023-03-06T06:35:24.029Z,73.40
2023-03-06T06:36:44.988Z,72.10
2023-03-06T06:37:23.863Z,73.80
2023-03-06T06:38:23.787Z,74.30
2023-03-06T06:39:23.740Z,75.60
2023-03-06T06:40:23.840Z,73.30
2023-03-06T06:44:02.483Z,71.80
2023-03-06T06:45:03.480Z,73.40
2023-03-06T06:46:28.315Z,75.90
2023-03-06T06:47:23.058Z,76.10
2023-03-06T06:48:03.264Z,72.00
2023-03-06T06:49:03.117Z,72.00
2023-03-06T06:50:03.108Z,73.20
2023-03-06T06:51:03.069Z,72.20
2023-03-06T06:52:04.971Z,70.80
2023-03-06T06:53:03.940Z,70.40
2023-03-06T06:55:17.174Z,67.00
2023-03-06T06:56:16.209Z,69.80
2023-03-06T06:57:13.394Z,68.90
2023-03-06T06:58:13.442Z,69.40
2023-03-06T06:59:17.042Z,71.80
2023-03-06T07:00:13.198Z,68.30
2023-03-06T07:01:13.167Z,69.90
2023-03-06T07:02:13.068Z,69.10
2023-03-06T07:03:12.967Z,70.20
2023-03-06T07:04:13.150Z,67.80
2023-03-06T07:05:12.837Z,69.00
2023-03-06T07:06:12.837Z,70.30
2023-03-06T07:07:12.707Z,67.20
2023-03-06T07:08:12.664Z,71.20
2023-03-06T07:09:12.597Z,70.60
2023-03-06T07:10:12.584Z,68.90
2023-03-06T07:11:12.495Z,71.00
2023-03-06T07:12:12.440Z,71.60
2023-03-06T07:13:12.381Z,68.20
2023-03-06T07:14:12.323Z,67.70
2023-03-06T07:15:12.227Z,66.70
2023-03-06T07:16:12.189Z,66.60
2023-03-06T07:17:12.109Z,66.60
2023-03-06T07:18:12.104Z,68.00
2023-03-06T07:19:11.989Z,67.50
2023-03-06T07:20:11.945Z,67.40
2023-03-06T07:21:11.854Z,66.50
2023-03-06T07:22:11.798Z,67.50
2023-03-06T07:23:11.750Z,68.10
2023-03-06T07:24:11.659Z,70.70
2023-03-06T07:25:11.596Z,65.80
2023-03-06T07:26:11.546Z,67.50
2023-03-06T07:27:11.512Z,67.20
2023-03-06T07:28:11.415Z,68.00
2023-03-06T07:29:11.343Z,67.00
2023-03-06T07:30:11.277Z,64.00
2023-03-06T07:31:11.255Z,67.00
2023-03-06T07:32:11.215Z,63.70
2023-03-06T07:33:11.092Z,63.00
2023-03-06T07:34:11.006Z,63.40
2023-03-06T07:35:19.678Z,63.80
2023-03-06T07:36:12.829Z,64.70
2023-03-06T07:37:10.851Z,63.70
2023-03-06T07:38:10.755Z,63.90
2023-03-06T07:39:10.742Z,64.60
2023-03-06T07:40:10.653Z,63.20
2023-03-06T07:41:10.622Z,62.40
2023-03-06T07:42:10.569Z,62.70
2023-03-06T07:43:19.001Z,62.80
2023-03-06T07:44:10.444Z,62.10
2023-03-06T07:45:10.368Z,62.90
2023-03-06T07:46:10.337Z,62.70
2023-03-06T07:47:10.228Z,61.20
2023-03-06T07:48:10.175Z,62.30
2023-03-06T07:49:10.071Z,62.70
2023-03-06T07:50:10.008Z,62.00
2023-03-06T07:51:10.002Z,62.60
2023-03-06T07:52:09.873Z,60.80
2023-03-06T07:53:10.862Z,59.20
2023-03-06T07:54:09.817Z,60.60
2023-03-06T07:55:09.712Z,59.30
2023-03-06T07:56:09.677Z,60.30
2023-03-06T07:57:09.615Z,61.50
2023-03-06T07:58:09.527Z,60.90
2023-03-06T07:59:09.468Z,58.70
2023-03-06T08:00:09.411Z,61.70
2023-03-06T08:01:09.338Z,61.00
2023-03-06T08:02:09.254Z,60.00
2023-03-06T08:03:09.214Z,61.40
2023-03-06T08:04:09.218Z,61.50
2023-03-06T08:05:09.094Z,59.80
2023-03-06T08:06:09.032Z,60.60
2023-03-06T08:07:08.969Z,60.40
2023-03-06T08:08:08.902Z,61.20
2023-03-06T08:09:08.834Z,59.10
2023-03-06T08:10:08.766Z,57.90
2023-03-06T08:11:08.708Z,58.90
2023-03-06T08:12:08.695Z,59.70
2023-03-06T08:13:08.578Z,58.10
2023-03-06T08:14:08.536Z,58.30
2023-03-06T08:15:08.493Z,56.60
2023-03-06T08:16:08.428Z,56.60
2023-03-06T08:17:08.328Z,57.10
2023-03-06T08:18:08.296Z,57.80
2023-03-06T08:19:08.201Z,57.40
2023-03-06T08:20:08.172Z,57.10
2023-03-06T08:21:08.080Z,56.40
2023-03-06T08:22:07.996Z,58.90
2023-03-06T08:23:09.981Z,58.10
2023-03-06T08:24:31.785Z,57.30
2023-03-06T08:25:08.855Z,58.20
2023-03-06T08:26:07.735Z,58.50
2023-03-06T08:27:07.749Z,58.00
2023-03-06T08:28:07.640Z,58.80
2023-03-06T08:29:07.576Z,58.50
2023-03-06T08:30:07.554Z,57.60
2023-03-06T08:31:07.450Z,57.70
2023-03-06T08:32:07.514Z,56.30
2023-03-06T08:33:07.318Z,57.20
2023-03-06T08:34:07.300Z,54.70
2023-03-06T08:35:07.281Z,55.70
2023-03-06T08:36:07.129Z,52.70
2023-03-06T08:37:07.117Z,55.90
2023-03-06T08:38:07.042Z,56.10
2023-03-06T08:39:06.943Z,55.60
2023-03-06T08:40:06.879Z,53.30
2023-03-06T08:41:06.796Z,54.40
2023-03-06T08:42:06.796Z,54.00
2023-03-06T08:43:06.719Z,54.40
2023-03-06T08:44:06.656Z,53.20
2023-03-06T08:45:06.611Z,55.30
2023-03-06T08:46:06.508Z,52.90
2023-03-06T08:47:06.428Z,50.80
2023-03-06T08:48:06.408Z,51.30
2023-03-06T08:49:06.297Z,53.50
2023-03-06T08:50:06.225Z,52.60
2023-03-06T08:51:06.191Z,50.60
2023-03-06T08:52:06.101Z,49.10
2023-03-06T08:53:06.058Z,48.60
2023-03-06T08:54:06.246Z,51.10
2023-03-06T08:55:05.977Z,50.20
2023-03-06T08:56:05.889Z,46.60
2023-03-06T08:57:05.809Z,48.60
2023-03-06T08:58:05.740Z,44.50
2023-03-06T08:59:05.731Z,43.80
2023-03-06T09:00:05.667Z,44.40
2023-03-06T09:01:05.715Z,43.20
2023-03-06T09:02:05.628Z,44.80
2023-03-06T09:03:05.434Z,43.10
2023-03-06T09:04:05.368Z,41.60
2023-03-06T09:05:05.290Z,41.40
2023-03-06T09:06:05.308Z,41.40
2023-03-06T09:07:05.161Z,42.90
2023-03-06T09:08:05.087Z,41.80
2023-03-06T09:09:05.056Z,40.00
2023-03-06T09:10:04.995Z,41.30
2023-03-06T09:11:04.987Z,39.50
2023-03-06T09:12:04.921Z,40.00
2023-03-06T09:13:04.769Z,39.10
2023-03-06T09:14:04.766Z,38.70
2023-03-06T09:15:04.674Z,37.30
2023-03-06T09:16:04.606Z,37.40
2023-03-06T09:17:04.574Z,39.20
2023-03-06T09:18:04.659Z,38.50
2023-03-06T09:19:04.434Z,37.60
2023-03-06T09:20:04.355Z,36.10
2023-03-06T09:21:04.323Z,35.80
2023-03-06T09:22:04.219Z,37.70
2023-03-06T09:23:04.203Z,38.10
2023-03-06T09:24:04.100Z,38.50
2023-03-06T09:25:04.051Z,36.80
2023-03-06T09:26:03.967Z,36.20
2023-03-06T09:27:03.897Z,38.30
2023-03-06T09:28:11.434Z,38.20
2023-03-06T09:29:03.832Z,36.10
2023-03-06T09:30:03.744Z,36.80
2023-03-06T09:31:03.706Z,36.10
2023-03-06T09:32:03.614Z,36.90
2023-03-06T09:33:03.549Z,37.60
2023-03-06T09:34:03.483Z,34.60
2023-03-06T09:35:03.451Z,35.90
2023-03-06T09:36:03.362Z,36.60
2023-03-06T09:37:03.332Z,34.90
2023-03-06T09:38:03.236Z,34.60
2023-03-06T09:39:03.192Z,36.10
2023-03-06T09:40:03.114Z,34.60
2023-03-06T09:41:03.044Z,34.90
2023-03-06T09:42:03.003Z,33.60
2023-03-06T09:43:02.946Z,35.20
2023-03-06T09:44:02.833Z,35.40
2023-03-06T09:45:02.832Z,36.30
2023-03-06T09:46:02.785Z,33.60
2023-03-06T09:47:02.637Z,34.60
2023-03-06T09:48:02.585Z,34.00
2023-03-06T09:49:02.527Z,28.60
2023-03-06T09:50:02.506Z,28.30
2023-03-06T09:51:02.419Z,27.30
2023-03-06T09:52:02.343Z,25.70
2023-03-06T09:53:02.318Z,25.80
2023-03-06T09:54:23.242Z,24.90
2023-03-06T09:55:02.166Z,25.80
2023-03-06T09:56:02.066Z,25.00
2023-03-06T09:57:02.059Z,24.90
2023-03-06T09:58:01.943Z,25.40
2023-03-06T09:59:01.902Z,24.90
2023-03-06T10:00:04.310Z,24.40
2023-03-06T10:01:01.782Z,25.90
2023-03-06T10:02:01.769Z,25.30
2023-03-06T10:03:01.802Z,25.50
2023-03-06T10:04:01.601Z,25.00
2023-03-06T10:05:01.575Z,25.20
2023-03-06T10:06:02.707Z,24.80
2023-03-06T10:07:01.411Z,24.40
2023-03-06T10:08:01.343Z,25.00
2023-03-06T10:09:01.268Z,24.70
2023-03-06T10:10:01.207Z,25.50
2023-03-06T10:11:01.158Z,25.30
2023-03-06T10:12:24.581Z,25.00
2023-03-06T10:13:01.036Z,25.70
2023-03-06T10:14:02.004Z,26.20
2023-03-06T10:15:01.164Z,31.00
2023-03-06T10:16:01.310Z,24.50
2023-03-06T10:17:00.769Z,25.90
2023-03-06T10:18:01.099Z,26.10
2023-03-06T10:19:00.648Z,25.20
2023-03-06T10:20:00.623Z,25.00
2023-03-06T10:21:13.404Z,25.00
2023-03-06T10:22:00.448Z,24.30
2023-03-06T10:23:03.862Z,23.30
2023-03-06T10:24:00.343Z,24.00
2023-03-06T10:25:00.330Z,22.00
2023-03-06T10:26:00.298Z,23.30
2023-03-06T10:27:01.169Z,24.10
2023-03-06T10:28:00.128Z,22.30
2023-03-06T10:29:00.017Z,23.80
2023-03-06T10:30:03.102Z,21.60
2023-03-06T10:30:59.981Z,22.70
2023-03-06T10:31:59.836Z,18.80
2023-03-06T10:32:59.857Z,39.30
2023-03-06T10:33:59.724Z,18.00
2023-03-06T10:34:59.659Z,17.50
2023-03-06T10:35:59.675Z,19.00
2023-03-06T10:37:00.807Z,19.20
2023-03-06T10:37:59.449Z,20.10
2023-03-06T10:38:59.361Z,18.90
2023-03-06T10:39:59.320Z,18.70
2023-03-06T10:41:00.297Z,18.50
2023-03-06T10:41:59.444Z,17.70
2023-03-06T10:43:11.152Z,17.70
2023-03-06T10:43:59.599Z,17.30
2023-03-06T10:44:59.020Z,18.50
2023-03-06T10:45:59.076Z,18.10
2023-03-06T10:46:59.518Z,17.90
2023-03-06T10:47:58.845Z,17.50
2023-03-06T10:48:58.759Z,17.90
2023-03-06T10:49:58.704Z,17.40
2023-03-06T10:50:59.713Z,16.50
2023-03-06T10:51:58.602Z,17.30
2023-03-06T10:52:58.475Z,16.20
2023-03-06T10:53:58.440Z,16.20
2023-03-06T10:54:58.398Z,16.00
2023-03-06T10:55:58.622Z,15.90
2023-03-06T10:56:59.124Z,16.60
2023-03-06T10:57:58.256Z,17.10
2023-03-06T10:58:58.181Z,17.40
2023-03-06T10:59:58.089Z,16.30
2023-03-06T11:00:57.982Z,16.40
2023-03-06T11:01:57.984Z,17.60
2023-03-06T11:02:57.843Z,17.20
2023-03-06T11:03:57.803Z,18.60
2023-03-06T11:04:57.746Z,18.40
2023-03-06T11:05:57.705Z,18.20
2023-03-06T11:06:57.622Z,18.50
2023-03-06T11:07:57.587Z,19.00
2023-03-06T11:08:57.485Z,18.90
2023-03-06T11:09:57.422Z,18.50
2023-03-06T11:10:57.421Z,18.20
2023-03-06T11:11:57.336Z,19.90
2023-03-06T11:12:57.419Z,19.80
2023-03-06T11:13:57.207Z,21.00
2023-03-06T11:14:57.108Z,20.10
2023-03-06T11:15:57.161Z,19.80
2023-03-06T11:16:57.032Z,20.00
2023-03-06T11:17:56.994Z,19.90
2023-03-06T11:18:56.883Z,19.70
2023-03-06T11:20:03.075Z,18.90
2023-03-06T11:20:57.057Z,19.70
2023-03-06T11:21:57.359Z,19.80
2023-03-06T11:22:59.645Z,20.10
2023-03-06T11:23:56.577Z,20.00
2023-03-06T11:24:56.475Z,19.20
2023-03-06T11:25:56.430Z,18.90
2023-03-06T11:26:56.915Z,18.80
2023-03-06T11:27:56.324Z,19.80
2023-03-06T11:28:56.335Z,19.80
2023-03-06T11:29:56.284Z,18.80
2023-03-06T11:30:56.092Z,18.40
2023-03-06T11:31:57.018Z,20.10
2023-03-06T11:32:56.005Z,19.80
2023-03-06T11:33:55.907Z,19.60
2023-03-06T11:34:56.406Z,19.10
2023-03-06T11:35:55.794Z,18.00
2023-03-06T11:36:55.715Z,18.10
2023-03-06T11:37:55.657Z,17.60
2023-03-06T11:38:55.616Z,18.60
2023-03-06T11:39:55.548Z,17.00
2023-03-06T11:40:56.042Z,18.50
2023-03-06T11:41:55.415Z,18.20
2023-03-06T11:42:56.252Z,18.40
2023-03-06T11:43:55.297Z,18.40
2023-03-06T11:44:55.268Z,18.60
2023-03-06T11:45:55.157Z,17.60
2023-03-06T11:46:55.109Z,17.50
2023-03-06T11:47:55.034Z,16.70
2023-03-06T11:48:55.056Z,16.70
2023-03-06T11:49:54.915Z,17.40
2023-03-06T11:50:54.899Z,16.70
2023-03-06T11:51:54.821Z,15.90
2023-03-06T11:52:54.701Z,17.20
2023-03-06T11:53:54.654Z,17.10
2023-03-06T11:54:54.571Z,17.10
2023-03-06T11:55:54.515Z,17.80
2023-03-06T11:56:54.490Z,17.20
2023-03-06T11:57:54.410Z,16.50
2023-03-06T11:58:54.329Z,17.20
2023-03-06T12:00:15.249Z,16.40
2023-03-06T12:00:54.209Z,16.70
2023-03-06T12:01:54.157Z,16.60
2023-03-06T12:02:54.073Z,17.00
2023-03-06T12:03:57.616Z,17.10
2023-03-06T12:04:53.991Z,17.90
2023-03-06T12:05:53.918Z,17.40
2023-03-06T12:06:56.788Z,15.80
2023-03-06T12:07:56.241Z,16.60
2023-03-06T12:08:56.428Z,16.40
2023-03-06T12:09:54.029Z,16.70
2023-03-06T12:10:55.558Z,17.00
2023-03-06T12:11:55.914Z,16.70
2023-03-06T12:12:59.942Z,16.60
2023-03-06T12:13:54.258Z,17.40
2023-03-06T12:14:54.201Z,17.10
2023-03-06T12:15:53.865Z,17.60
2023-03-06T12:17:02.440Z,17.00
2023-03-06T12:17:54.641Z,16.80
2023-03-06T12:18:53.063Z,16.80
2023-03-06T12:19:53.028Z,16.20
2023-03-06T12:20:52.911Z,16.10
2023-03-06T12:21:52.877Z,17.20
2023-03-06T12:23:02.540Z,17.30
2023-03-06T12:23:52.739Z,16.90
2023-03-06T12:24:54.445Z,17.20
2023-03-06T12:25:52.668Z,16.40
2023-03-06T12:26:52.589Z,17.10
2023-03-06T12:27:52.472Z,16.80
2023-03-06T12:28:52.435Z,16.30
2023-03-06T12:29:52.407Z,16.10
2023-03-06T12:30:52.303Z,16.10
2023-03-06T12:31:52.276Z,16.50
2023-03-06T12:32:52.232Z,17.30
2023-03-06T12:33:52.114Z,16.90
2023-03-06T12:34:52.023Z,16.50
2023-03-06T12:37:01.252Z,15.20
2023-03-06T12:38:02.105Z,15.50
2023-03-06T12:39:02.065Z,14.10
2023-03-06T12:40:01.964Z,14.50
2023-03-06T12:41:01.917Z,13.90
2023-03-06T12:42:02.493Z,15.00
2023-03-06T12:43:01.766Z,14.50
2023-03-06T12:44:01.754Z,13.40
2023-03-06T12:45:01.677Z,14.60
2023-03-06T12:46:01.624Z,15.00
2023-03-06T12:47:01.545Z,14.50
2023-03-06T12:48:01.524Z,15.00
2023-03-06T12:49:01.447Z,14.20
2023-03-06T12:50:01.364Z,14.70
2023-03-06T12:51:01.321Z,14.90
2023-03-06T12:52:01.288Z,15.30
2023-03-06T12:53:01.201Z,15.30
2023-03-06T12:54:01.094Z,15.20
2023-03-06T12:55:01.064Z,15.40
2023-03-06T12:56:00.956Z,15.10
2023-03-06T12:57:00.915Z,15.10
2023-03-06T12:58:00.878Z,16.40
2023-03-06T12:59:00.839Z,24.50
2023-03-06T13:00:00.837Z,59.30
2023-03-06T13:01:04.513Z,16.90
2023-03-06T13:02:00.594Z,27.20
2023-03-06T13:03:00.569Z,20.20
2023-03-06T13:04:00.505Z,21.00
2023-03-06T13:05:00.496Z,16.10
2023-03-06T13:06:00.422Z,24.70
2023-03-06T13:07:00.294Z,15.80
2023-03-06T13:08:00.232Z,15.70